Bei Facebook empfehlenBei Twitter postenGoogle plusPinterest

Das Wetter im Erzgebirge am 15.02.2016

Wetter und Klima am 15.02.2016 Holzhau im Erzgebirge (630m ü.NN)
Letzte gemessene Temperatur und Uhrzeit der Messung23:45:00 Uhr-0.70 °C
Temperatur (Maximum / Höchstwert) und Uhrzeit der Messung14:00:00 Uhr4.60 °C
Temperatur (Minimum / Tiefstwert) und Uhrzeit der Messung23:45:00-0.70 °C
Errechneter Absolutwert der Temperaturschwankungen zwischen Tmin und Tmax des Tages5.30 K
Errechnete Tagesmitteltemperatur1.88542 °C
Gesamt - Niederschlag des Tages (in flüssiger Form)0.52 Liter / m²
Luftdruck (Maximum / Höchstwert) und Zeitpunkt der Messung23:45:00 Uhr1016.90 hPa
Luftdruck (Minimum / Tiefstwert) und Zeitpunkt der Messung00:00:00 Uhr993.80 hPa
Errechneter Absolutwert der Luftdruckschwankungen des Tages23.10 hPa
Höchste gemessene Windgeschwindigkeit und Uhrzeit der Messung21:30:00 Uhr8.64 km/h
Errechnete Windhäufigkeit in Relation zu den Messwerten des Tages11.45833 %
Niedrigste Windkühle (Windchill) und Zeitpunkt der Messung21:30:00 Uhr-2.80 °C
Taupunkt (Maximum / Höchstwert) und Uhrzeit der Messung14:00:00 Uhr3.40 °C
Taupunkt (Minimum / Tiefstwert) und Uhrzeit der Messung23:45:00-1.80 °C
Anzahl der automatisch eingelesenen Messwerte 96

Detaillierte Wetter- und Klima- Messwerte für den 15.02.2016 in Holzhau im Erzgebirge (630m ü.NN)
ZeitTemperaturLuftdruckRel. LuftfeuchteWindWindrichtungWindchillTaupunktNiederschlag l/m²
23:45:00-0.70 °C1016.90 hPa93.00 %-1.80 °C0.52
23:30:00-0.60 °C1016.50 hPa93.00 %-1.70 °C0.52
23:15:00-0.50 °C1016.20 hPa92.00 %2.52 km/hNW-0.50 °C-1.80 °C0.52
23:00:00-0.40 °C1016.00 hPa92.00 %-1.70 °C0.52
22:45:00-0.30 °C1015.70 hPa92.00 %-1.60 °C0.52
22:30:00-0.20 °C1015.70 hPa92.00 %-1.50 °C0.52
22:15:00-0.10 °C1015.60 hPa92.00 %-1.40 °C0.52
22:00:00-0.10 °C1015.20 hPa92.00 %-1.40 °C0.52
21:45:00-0.10 °C1015.00 hPa92.00 %-1.40 °C0.52
21:30:000.10 °C1014.80 hPa91.00 %8.64 km/hWNW-2.80 °C-1.20 °C0.52
21:15:000.10 °C1014.70 hPa91.00 %-1.20 °C0.52
21:00:000.20 °C1014.50 hPa91.00 %-1.10 °C0.52
20:45:000.30 °C1014.20 hPa91.00 %2.16 km/hWNW0.30 °C-1.00 °C0.52
20:30:000.30 °C1014.00 hPa91.00 %-1.00 °C0.52
20:15:000.30 °C1013.70 hPa91.00 %-1.00 °C0.52
20:00:000.40 °C1013.40 hPa91.00 %-0.90 °C0.52
19:45:000.40 °C1013.20 hPa91.00 %-0.90 °C0.52
19:30:000.50 °C1013.00 hPa90.00 %-0.90 °C0.52
19:15:000.80 °C1012.60 hPa90.00 %-0.60 °C0.52
19:00:000.90 °C1012.40 hPa90.00 %-0.50 °C0.52
18:45:000.90 °C1012.20 hPa90.00 %-0.50 °C0.52
18:30:001.00 °C1011.70 hPa89.00 %-0.60 °C0.52
18:15:001.10 °C1011.30 hPa89.00 %-0.50 °C0.52
18:00:001.30 °C1011.00 hPa89.00 %-0.30 °C0.52
17:45:001.30 °C1010.50 hPa89.00 %-0.30 °C0.52
17:30:001.30 °C1010.30 hPa89.00 %-0.30 °C0.52
17:15:001.60 °C1009.80 hPa89.00 %0.00 °C0.52
17:00:001.90 °C1009.50 hPa89.00 %0.30 °C0.52
16:45:002.20 °C1009.00 hPa88.00 %0.40 °C0.52
16:30:002.60 °C1008.80 hPa88.00 %2.16 km/hWNW2.60 °C0.80 °C0.52
16:15:003.00 °C1008.60 hPa88.00 %7.20 km/hNNW1.00 °C1.20 °C0.52
16:00:003.10 °C1008.10 hPa88.00 %1.30 °C0.52
15:45:003.30 °C1008.00 hPa88.00 %1.50 °C0.52
15:30:003.40 °C1007.60 hPa89.00 %1.80 °C0.52
15:15:003.10 °C1007.50 hPa89.00 %1.50 °C0.52
15:00:003.30 °C1007.20 hPa89.00 %1.70 °C0.52
14:45:003.60 °C1006.90 hPa89.00 %2.00 °C0.52
14:30:003.90 °C1006.60 hPa90.00 %1.80 km/hWNW3.90 °C2.40 °C0.52
14:15:004.40 °C1006.30 hPa91.00 %3.10 °C0.52
14:00:004.60 °C1006.00 hPa92.00 %3.40 °C0.52
13:45:003.80 °C1005.80 hPa92.00 %2.60 °C0.52
13:30:003.50 °C1006.00 hPa92.00 %2.30 °C0.52
13:15:003.30 °C1005.80 hPa92.00 %1.44 km/hWNW3.30 °C2.10 °C0.52
13:00:003.40 °C1005.60 hPa91.00 %2.16 km/hNW3.40 °C2.10 °C0.52
12:45:003.90 °C1005.50 hPa92.00 %2.70 °C0.52
12:30:004.30 °C1005.30 hPa92.00 %3.10 °C0.52
12:15:004.40 °C1005.10 hPa93.00 %3.40 °C0.52
12:00:004.10 °C1004.90 hPa93.00 %3.10 °C0.52
11:45:004.20 °C1004.70 hPa94.00 %3.30 °C0.52
11:30:004.30 °C1004.70 hPa94.00 %3.24 km/hWSW4.30 °C3.40 °C0.52
11:15:003.90 °C1004.40 hPa94.00 %5.40 km/hWSW2.70 °C3.00 °C0.52
11:00:003.60 °C1004.00 hPa94.00 %2.70 °C0.52
10:45:004.10 °C1003.50 hPa95.00 %3.40 °C0.52
10:30:003.80 °C1003.30 hPa95.00 %3.10 °C 
10:15:003.60 °C1003.10 hPa95.00 %2.16 km/hNW3.60 °C2.90 °C 
10:00:003.30 °C1002.70 hPa95.00 %2.60 °C 
09:45:002.90 °C1002.30 hPa95.00 %2.20 °C 
09:30:002.30 °C1002.20 hPa95.00 %1.60 °C 
09:15:001.80 °C1002.00 hPa95.00 %1.10 °C 
09:00:001.50 °C1001.80 hPa95.00 %0.80 °C 
08:45:001.30 °C1001.70 hPa95.00 %0.60 °C 
08:30:001.10 °C1001.20 hPa95.00 %0.40 °C 
08:15:000.90 °C1000.80 hPa94.00 %0.00 °C 
08:00:000.80 °C1000.70 hPa94.00 %-0.10 °C 
07:45:000.90 °C1000.50 hPa94.00 %0.00 °C 
07:30:000.90 °C1000.00 hPa94.00 %0.00 °C 
07:15:000.90 °C999.80 hPa94.00 %0.00 °C 
07:00:001.20 °C999.70 hPa94.00 %0.30 °C 
06:45:001.30 °C999.50 hPa94.00 %0.40 °C 
06:30:001.30 °C999.60 hPa94.00 %0.40 °C 
06:15:001.30 °C999.60 hPa94.00 %0.40 °C 
06:00:001.30 °C999.20 hPa94.00 %0.40 °C 
05:45:001.40 °C998.80 hPa94.00 %0.50 °C 
05:30:001.50 °C998.40 hPa94.00 %0.60 °C 
05:15:001.50 °C998.20 hPa94.00 %0.60 °C 
05:00:001.50 °C998.10 hPa94.00 %0.60 °C 
04:45:001.50 °C997.90 hPa94.00 %0.60 °C 
04:30:001.50 °C997.50 hPa94.00 %0.60 °C 
04:15:001.50 °C997.40 hPa94.00 %0.60 °C 
04:00:001.50 °C997.30 hPa94.00 %0.60 °C 
03:45:001.50 °C997.10 hPa94.00 %0.60 °C 
03:30:001.60 °C996.80 hPa93.00 %0.60 °C 
03:15:001.80 °C996.80 hPa94.00 %0.90 °C 
03:00:002.10 °C996.50 hPa94.00 %1.20 °C 
02:45:002.10 °C996.30 hPa94.00 %1.20 °C 
02:30:002.20 °C996.20 hPa94.00 %1.30 °C 
02:15:002.30 °C996.00 hPa94.00 %1.40 °C 
02:00:002.30 °C995.70 hPa94.00 %1.40 °C 
01:45:002.40 °C995.40 hPa93.00 %1.40 °C 
01:30:002.30 °C995.00 hPa93.00 %1.30 °C 
01:15:002.20 °C994.70 hPa93.00 %1.20 °C 
01:00:002.20 °C994.60 hPa93.00 %1.20 °C 
00:45:002.10 °C994.40 hPa93.00 %1.10 °C 
00:30:002.10 °C994.20 hPa93.00 %1.10 °C 
00:15:002.20 °C994.10 hPa93.00 %1.20 °C 
00:00:002.30 °C993.80 hPa93.00 %1.30 °C 

Permanenter Link zu dieser Seite: Wetter im Erzgebirge am 15.02.2016
Performance-Info: Die Erstellung der Seite / Statistik(en) / Tabelle(n) erforderte 5 Datenbankserver-Abfrage(n) und dauerte 70 Millisekunden. (Dieser Messwert ist von der Gesamt-Auslastung des Servers abhängig.)
Erzgebirge - Wetter | Erzgebirge - Wetter (Mobilgeräte) | Komplette Klimadatenbank